Time;durP1;ratioP1;P1;durP2;ratioP2;P2;SDS_P1;SDS_P2;PMS_P1;PMS_P2;Temp;Humidity;BMP_temperature;BMP_pressure;BME280_temperature;BME280_humidity;BME280_pressure;Samples;Min_cycle;Max_cycle;Signal;HPM_P1;HPM_P2
2023/06/08 00:02:19;;;;;;;;;;;21.50;56.30;;;;;;10363163;28;89309;-66
2023/06/08 00:07:24;;;;;;;;;;;21.50;56.30;;;;;;10380793;28;89214;-66
2023/06/08 00:12:28;;;;;;;;;;;21.50;56.30;;;;;;10380933;28;89133;-66
2023/06/08 00:17:31;;;;;;;;;;;21.50;56.30;;;;;;10381065;28;90331;-65
2023/06/08 00:22:36;;;;;;;;;;;21.40;56.10;;;;;;10380545;28;90018;-66
2023/06/08 00:27:39;;;;;;;;;;;21.40;56.20;;;;;;10380717;28;90005;-65
2023/06/08 00:32:41;;;;;;;;;;;21.40;56.10;;;;;;10380598;28;87941;-66
2023/06/08 00:37:43;;;;;;;;;;;21.40;56.00;;;;;;10379974;28;90307;-66
2023/06/08 00:42:45;;;;;;;;;;;21.40;56.00;;;;;;10379781;28;88127;-66
2023/06/08 00:47:47;;;;;;;;;;;21.40;56.00;;;;;;10378190;28;90277;-66
2023/06/08 00:52:50;;;;;;;;;;;21.40;55.90;;;;;;10380386;28;89767;-66
2023/06/08 00:57:52;;;;;;;;;;;21.40;55.90;;;;;;10360650;28;90118;-66
2023/06/08 01:02:57;;;;;;;;;;;21.40;55.90;;;;;;10379167;28;89097;-66
2023/06/08 01:08:17;;;;;;;;;;;21.50;55.90;;;;;;10377801;28;88519;-66
2023/06/08 01:13:29;;;;;;;;;;;21.40;55.80;;;;;;10380317;28;90183;-66
2023/06/08 01:18:33;;;;;;;;;;;21.40;55.80;;;;;;10378866;28;88641;-67
2023/06/08 01:23:54;;;;;;;;;;;21.40;55.70;;;;;;10378185;28;88317;-67
2023/06/08 01:28:56;;;;;;;;;;;21.40;55.70;;;;;;10378473;28;90009;-67
2023/06/08 01:33:58;;;;;;;;;;;21.40;55.60;;;;;;10377922;28;89144;-66
2023/06/08 01:39:09;;;;;;;;;;;21.40;55.60;;;;;;10377317;28;91018;-66
2023/06/08 01:44:13;;;;;;;;;;;21.40;55.60;;;;;;10377955;28;90186;-66
2023/06/08 01:49:15;;;;;;;;;;;21.30;55.50;;;;;;10359113;28;90233;-66
2023/06/08 01:54:20;;;;;;;;;;;21.40;55.60;;;;;;10377263;28;88418;-66
2023/06/08 01:59:22;;;;;;;;;;;21.30;55.50;;;;;;10359851;28;92084;-66
2023/06/08 02:04:24;;;;;;;;;;;21.30;55.50;;;;;;10376461;28;90315;-66
2023/06/08 02:09:26;;;;;;;;;;;21.30;55.50;;;;;;10378230;28;90473;-66
2023/06/08 02:14:28;;;;;;;;;;;21.30;55.60;;;;;;10377913;28;88620;-66
2023/06/08 02:19:32;;;;;;;;;;;21.30;55.50;;;;;;10376541;28;89074;-66
2023/06/08 02:24:34;;;;;;;;;;;21.30;55.50;;;;;;10376460;28;90209;-66
2023/06/08 02:29:36;;;;;;;;;;;21.30;55.50;;;;;;10375668;28;90484;-66
2023/06/08 02:34:38;;;;;;;;;;;21.30;55.50;;;;;;10376096;28;89238;-66
2023/06/08 02:39:40;;;;;;;;;;;21.20;55.40;;;;;;10357330;28;90257;-66
2023/06/08 02:44:42;;;;;;;;;;;21.20;55.40;;;;;;10358480;28;90218;-66
2023/06/08 02:49:43;;;;;;;;;;;21.20;55.40;;;;;;10357429;28;90221;-66
2023/06/08 02:54:45;;;;;;;;;;;21.20;55.40;;;;;;10357519;28;90106;-66
2023/06/08 02:59:47;;;;;;;;;;;21.20;55.40;;;;;;10357644;28;89057;-66
2023/06/08 03:04:52;;;;;;;;;;;21.20;55.40;;;;;;10375653;28;88661;-67
2023/06/08 03:09:54;;;;;;;;;;;21.20;55.40;;;;;;10356624;28;89037;-66
2023/06/08 03:14:56;;;;;;;;;;;21.20;55.40;;;;;;10375569;28;89297;-66
2023/06/08 03:19:59;;;;;;;;;;;21.20;55.40;;;;;;10373816;28;90011;-66
2023/06/08 03:25:03;;;;;;;;;;;21.20;55.30;;;;;;10375613;28;90091;-66
2023/06/08 03:30:06;;;;;;;;;;;21.20;55.40;;;;;;10373281;28;89175;-66
2023/06/08 03:35:08;;;;;;;;;;;21.20;55.30;;;;;;10374549;28;89776;-66
2023/06/08 03:40:10;;;;;;;;;;;21.20;55.20;;;;;;10373962;28;89991;-66
2023/06/08 03:45:12;;;;;;;;;;;21.20;55.20;;;;;;10373778;28;89092;-66
2023/06/08 04:22:28;;;;;;;;;;;21.10;55.10;;;;;;10332376;28;89996;-66
2023/06/08 04:27:31;;;;;;;;;;;21.10;55.10;;;;;;10314600;28;89049;-66
2023/06/08 04:32:33;;;;;;;;;;;21.10;55.20;;;;;;10313238;28;88334;-66
2023/06/08 04:37:35;;;;;;;;;;;21.10;55.10;;;;;;10332371;28;90316;-66
2023/06/08 04:42:39;;;;;;;;;;;21.10;55.10;;;;;;10336021;28;90072;-66
2023/06/08 04:47:41;;;;;;;;;;;21.10;55.20;;;;;;10757900;22;93096;-67
2023/06/08 04:52:45;;;;;;;;;;;21.10;55.30;;;;;;10334804;28;88789;-67
2023/06/08 04:57:47;;;;;;;;;;;21.10;55.20;;;;;;10338567;28;90056;-67
2023/06/08 05:02:49;;;;;;;;;;;21.10;55.30;;;;;;10337341;28;89231;-67
2023/06/08 05:07:51;;;;;;;;;;;21.10;55.20;;;;;;10317478;28;90755;-67
2023/06/08 05:12:55;;;;;;;;;;;21.00;55.20;;;;;;10337580;28;88961;-67
2023/06/08 05:17:57;;;;;;;;;;;21.10;55.30;;;;;;10337371;28;90264;-67
2023/06/08 05:23:05;;;;;;;;;;;21.00;55.20;;;;;;10320720;28;88475;-67
2023/06/08 05:28:07;;;;;;;;;;;21.00;55.20;;;;;;10335741;28;90393;-68
2023/06/08 05:33:09;;;;;;;;;;;21.00;55.20;;;;;;10336932;28;89399;-69
2023/06/08 05:38:11;;;;;;;;;;;21.10;55.30;;;;;;10336663;28;89305;-68
2023/06/08 05:43:13;;;;;;;;;;;21.10;55.50;;;;;;10319364;28;89412;-68
2023/06/08 05:48:15;;;;;;;;;;;21.10;55.50;;;;;;10335426;28;88991;-67
2023/06/08 05:53:17;;;;;;;;;;;21.10;56.60;;;;;;10335396;28;88953;-68
2023/06/08 05:58:21;;;;;;;;;;;21.20;56.20;;;;;;10334428;28;89892;-68
2023/06/08 06:03:33;;;;;;;;;;;21.20;56.30;;;;;;10335421;28;88447;-67
2023/06/08 06:08:35;;;;;;;;;;;21.30;56.90;;;;;;10334403;28;89039;-67
2023/06/08 06:13:37;;;;;;;;;;;21.30;56.70;;;;;;10335863;28;90203;-67
2023/06/08 06:18:39;;;;;;;;;;;21.40;56.70;;;;;;10335428;28;88903;-68
2023/06/08 06:23:41;;;;;;;;;;;21.40;56.70;;;;;;10334757;28;90201;-69
2023/06/08 06:28:42;;;;;;;;;;;21.40;56.50;;;;;;10333389;28;88954;-68
2023/06/08 06:33:44;;;;;;;;;;;21.50;56.40;;;;;;10333502;28;88335;-68
2023/06/08 06:38:46;;;;;;;;;;;21.50;56.40;;;;;;10335161;28;89099;-68
2023/06/08 06:43:47;;;;;;;;;;;21.50;56.40;;;;;;10335100;28;88567;-68
2023/06/08 06:48:49;;;;;;;;;;;21.50;56.30;;;;;;10333104;28;92002;-69
2023/06/08 06:53:51;;;;;;;;;;;21.50;56.30;;;;;;10335150;28;90359;-68
2023/06/08 06:58:53;;;;;;;;;;;21.60;56.10;;;;;;10333677;28;88568;-69
2023/06/08 07:03:55;;;;;;;;;;;21.60;56.00;;;;;;10333299;28;89975;-68
2023/06/08 07:08:56;;;;;;;;;;;21.60;55.90;;;;;;10316409;28;90030;-68
2023/06/08 07:13:58;;;;;;;;;;;21.60;55.80;;;;;;10334216;28;89035;-69
2023/06/08 07:19:00;;;;;;;;;;;21.70;55.70;;;;;;10333455;28;90350;-68
2023/06/08 07:24:02;;;;;;;;;;;21.70;55.60;;;;;;10333670;28;88311;-67
2023/06/08 07:29:24;;;;;;;;;;;21.70;55.60;;;;;;10333161;28;91110;-68
2023/06/08 07:34:26;;;;;;;;;;;21.80;55.40;;;;;;10334346;28;90041;-69
2023/06/08 07:39:28;;;;;;;;;;;21.70;55.50;;;;;;10331244;28;89880;-68
2023/06/08 07:44:30;;;;;;;;;;;21.70;55.50;;;;;;10332725;28;88998;-68
2023/06/08 07:49:31;;;;;;;;;;;21.60;55.50;;;;;;10333475;28;89806;-68
2023/06/08 07:54:33;;;;;;;;;;;21.60;55.60;;;;;;10332408;28;89050;-69
2023/06/08 07:59:35;;;;;;;;;;;21.60;55.70;;;;;;10333112;28;90193;-68
2023/06/08 08:04:37;;;;;;;;;;;21.60;55.60;;;;;;10333448;28;90055;-69
2023/06/08 08:09:41;;;;;;;;;;;21.70;55.70;;;;;;10332116;28;88985;-68
2023/06/08 08:14:43;;;;;;;;;;;21.60;55.60;;;;;;10316864;28;89460;-68
2023/06/08 08:19:45;;;;;;;;;;;21.60;55.70;;;;;;10339512;28;88649;-68
2023/06/08 08:24:46;;;;;;;;;;;21.60;55.60;;;;;;10340362;28;90075;-69
2023/06/08 08:29:48;;;;;;;;;;;21.60;55.70;;;;;;10338162;28;92119;-68
2023/06/08 08:34:50;;;;;;;;;;;21.60;55.70;;;;;;10321550;28;89055;-69
2023/06/08 08:39:52;;;;;;;;;;;21.60;55.80;;;;;;10339632;28;88733;-69
2023/06/08 08:44:55;;;;;;;;;;;21.60;55.70;;;;;;10338665;28;88305;-69
2023/06/08 08:50:04;;;;;;;;;;;21.70;55.70;;;;;;10339186;28;88840;-69
2023/06/08 08:55:07;;;;;;;;;;;21.70;55.60;;;;;;10320669;28;89921;-69
2023/06/08 09:00:22;;;;;;;;;;;21.70;55.60;;;;;;10338834;28;89521;-68
2023/06/08 09:05:25;;;;;;;;;;;21.70;55.70;;;;;;10321631;28;88366;-68
2023/06/08 09:10:27;;;;;;;;;;;21.60;56.60;;;;;;10337123;28;89247;-68
2023/06/08 09:15:28;;;;;;;;;;;21.60;55.70;;;;;;10320217;28;90229;-68
2023/06/08 09:20:31;;;;;;;;;;;21.60;55.80;;;;;;10337664;28;90868;-68
2023/06/08 09:25:37;;;;;;;;;;;21.60;55.90;;;;;;10337453;28;89994;-69
2023/06/08 09:30:40;;;;;;;;;;;21.50;55.90;;;;;;10318953;28;88638;-69
2023/06/08 09:35:42;;;;;;;;;;;21.60;57.00;;;;;;10337370;28;90061;-69
2023/06/08 09:40:44;;;;;;;;;;;21.50;56.00;;;;;;10336896;28;90184;-68
2023/06/08 09:45:46;;;;;;;;;;;21.50;56.10;;;;;;10337223;28;90068;-69
2023/06/08 09:50:48;;;;;;;;;;;21.50;56.20;;;;;;10318886;28;89045;-69
2023/06/08 09:55:51;;;;;;;;;;;21.50;56.10;;;;;;10337339;28;88511;-69
2023/06/08 10:00:55;;;;;;;;;;;21.50;56.00;;;;;;10336615;28;91176;-68
2023/06/08 10:05:57;;;;;;;;;;;21.60;55.90;;;;;;10336460;28;89152;-68
2023/06/08 10:10:59;;;;;;;;;;;21.70;55.90;;;;;;10334533;28;90736;-68
2023/06/08 10:16:01;;;;;;;;;;;21.70;55.80;;;;;;10335613;28;90043;-68
2023/06/08 10:21:04;;;;;;;;;;;21.80;55.70;;;;;;10335494;28;88493;-68
2023/06/08 10:26:06;;;;;;;;;;;21.80;55.70;;;;;;10335037;28;88931;-68
2023/06/08 10:31:28;;;;;;;;;;;21.80;55.60;;;;;;10336246;28;90049;-68
2023/06/08 10:36:36;;;;;;;;;;;21.80;55.60;;;;;;10335442;28;89909;-68
2023/06/08 10:41:42;;;;;;;;;;;21.90;55.70;;;;;;10334965;28;89258;-69
2023/06/08 10:46:44;;;;;;;;;;;21.90;55.70;;;;;;10336449;28;89768;-69
2023/06/08 10:51:45;;;;;;;;;;;21.90;55.70;;;;;;10335073;28;90142;-68
2023/06/08 10:56:52;;;;;;;;;;;21.90;55.50;;;;;;10334852;28;89025;-69
2023/06/08 11:02:15;;;;;;;;;;;21.90;55.60;;;;;;10334967;28;92711;-69
2023/06/08 11:07:17;;;;;;;;;;;21.90;55.60;;;;;;10333963;28;89130;-69
2023/06/08 11:12:21;;;;;;;;;;;22.00;55.60;;;;;;10333884;28;89243;-69
2023/06/08 11:17:23;;;;;;;;;;;21.90;55.60;;;;;;10334088;28;89011;-70
2023/06/08 11:22:25;;;;;;;;;;;22.00;55.60;;;;;;10333770;28;88499;-69
2023/06/08 11:27:27;;;;;;;;;;;21.90;55.70;;;;;;10333183;28;90071;-69
2023/06/08 11:32:28;;;;;;;;;;;22.00;55.80;;;;;;10334027;28;89951;-69
2023/06/08 11:37:33;;;;;;;;;;;21.90;55.80;;;;;;10333506;28;89235;-68
2023/06/08 11:42:38;;;;;;;;;;;21.90;55.80;;;;;;10332890;28;89981;-68
2023/06/08 11:47:43;;;;;;;;;;;22.00;55.80;;;;;;10332897;28;90281;-69
2023/06/08 11:52:46;;;;;;;;;;;22.00;55.80;;;;;;10331664;28;90668;-68
2023/06/08 11:57:50;;;;;;;;;;;21.90;55.80;;;;;;10332738;28;90038;-69
2023/06/08 12:02:52;;;;;;;;;;;21.90;55.90;;;;;;10332166;28;90064;-68
2023/06/08 12:08:04;;;;;;;;;;;21.90;55.90;;;;;;10333214;28;88118;-68
2023/06/08 12:13:07;;;;;;;;;;;21.90;56.00;;;;;;10332506;28;90465;-69
2023/06/08 12:18:10;;;;;;;;;;;21.90;56.00;;;;;;10332967;28;90033;-69
2023/06/08 12:23:12;;;;;;;;;;;21.90;56.00;;;;;;10313390;28;89172;-69
2023/06/08 12:28:22;;;;;;;;;;;21.90;56.10;;;;;;10332980;28;88865;-69
2023/06/08 12:33:24;;;;;;;;;;;21.90;56.20;;;;;;10332732;28;89068;-69
2023/06/08 12:38:26;;;;;;;;;;;21.90;56.20;;;;;;10332962;28;90035;-69
2023/06/08 12:43:28;;;;;;;;;;;21.90;56.20;;;;;;10331526;28;90847;-68
2023/06/08 12:48:30;;;;;;;;;;;21.90;56.20;;;;;;10332208;28;89646;-69
2023/06/08 12:53:31;;;;;;;;;;;21.90;56.20;;;;;;10330731;28;89488;-70
2023/06/08 12:58:33;;;;;;;;;;;21.90;56.30;;;;;;10331850;28;90091;-69
2023/06/08 13:03:35;;;;;;;;;;;22.00;56.40;;;;;;10334588;28;90220;-69
2023/06/08 13:08:37;;;;;;;;;;;22.00;56.30;;;;;;10338705;28;88362;-69
2023/06/08 13:13:39;;;;;;;;;;;22.00;56.30;;;;;;10338935;28;89596;-69
2023/06/08 13:18:41;;;;;;;;;;;22.00;56.40;;;;;;10337695;28;88774;-69
2023/06/08 13:23:43;;;;;;;;;;;22.00;56.40;;;;;;10319986;28;88547;-69
2023/06/08 13:28:45;;;;;;;;;;;22.00;56.40;;;;;;10337430;28;89992;-69
2023/06/08 13:33:47;;;;;;;;;;;22.00;56.40;;;;;;10336509;28;90744;-69
2023/06/08 13:38:49;;;;;;;;;;;22.10;56.50;;;;;;10336827;28;90009;-69
2023/06/08 13:43:51;;;;;;;;;;;22.00;56.50;;;;;;10319414;28;90038;-69
2023/06/08 13:48:53;;;;;;;;;;;22.00;56.40;;;;;;10335717;28;90151;-70
2023/06/08 13:53:55;;;;;;;;;;;22.00;56.50;;;;;;10336322;28;88318;-69
2023/06/08 13:58:58;;;;;;;;;;;22.00;56.50;;;;;;10336752;28;90077;-69
2023/06/08 14:04:00;;;;;;;;;;;22.00;56.50;;;;;;10336139;28;88975;-69
2023/06/08 14:09:02;;;;;;;;;;;22.00;56.50;;;;;;10337632;28;89330;-70
2023/06/08 14:14:04;;;;;;;;;;;22.00;56.60;;;;;;10335520;28;89999;-70
2023/06/08 14:19:06;;;;;;;;;;;22.00;56.60;;;;;;10335717;28;89930;-69
2023/06/08 14:24:08;;;;;;;;;;;22.00;56.60;;;;;;10334949;28;89904;-68
2023/06/08 14:29:09;;;;;;;;;;;22.00;56.70;;;;;;10335743;28;88117;-68
2023/06/08 14:34:11;;;;;;;;;;;22.00;56.70;;;;;;10335341;28;89465;-69
2023/06/08 14:39:17;;;;;;;;;;;21.90;56.70;;;;;;10334481;28;88501;-68
2023/06/08 14:44:19;;;;;;;;;;;21.90;56.70;;;;;;10334965;28;88996;-68
2023/06/08 14:49:21;;;;;;;;;;;21.90;56.80;;;;;;10334559;28;89207;-68
2023/06/08 14:54:23;;;;;;;;;;;21.90;56.80;;;;;;10335349;28;88087;-69
2023/06/08 14:59:25;;;;;;;;;;;21.90;56.80;;;;;;10334854;28;88260;-68
2023/06/08 15:04:26;;;;;;;;;;;21.90;56.80;;;;;;10334924;28;89650;-68
2023/06/08 15:09:28;;;;;;;;;;;21.90;56.80;;;;;;10334833;28;90068;-69
2023/06/08 15:14:30;;;;;;;;;;;21.90;56.90;;;;;;10333152;28;90844;-68
2023/06/08 15:19:32;;;;;;;;;;;22.00;57.10;;;;;;10333003;28;89285;-69
2023/06/08 15:24:33;;;;;;;;;;;21.90;57.10;;;;;;10314963;28;88125;-68
2023/06/08 15:29:35;;;;;;;;;;;22.00;57.10;;;;;;10333250;28;88895;-68
2023/06/08 15:34:37;;;;;;;;;;;22.00;57.20;;;;;;10333127;28;89995;-69
2023/06/08 15:39:39;;;;;;;;;;;22.00;57.20;;;;;;10333965;28;90085;-68
2023/06/08 15:44:40;;;;;;;;;;;22.00;57.30;;;;;;10333771;28;89139;-69
2023/06/08 15:49:42;;;;;;;;;;;22.00;57.30;;;;;;10333406;28;88927;-68
2023/06/08 15:54:44;;;;;;;;;;;22.00;57.30;;;;;;10333212;28;89334;-68
2023/06/08 15:59:45;;;;;;;;;;;22.00;57.40;;;;;;10332745;28;89426;-68
2023/06/08 16:04:48;;;;;;;;;;;22.00;57.40;;;;;;10333187;28;89757;-68
2023/06/08 16:09:50;;;;;;;;;;;22.10;57.80;;;;;;10333479;28;88976;-68
2023/06/08 16:14:52;;;;;;;;;;;22.00;58.20;;;;;;10332220;28;89126;-69
2023/06/08 16:19:54;;;;;;;;;;;22.10;58.70;;;;;;10331538;28;89772;-68
2023/06/08 16:24:56;;;;;;;;;;;22.10;58.80;;;;;;10332402;28;88080;-68
2023/06/08 16:29:57;;;;;;;;;;;22.10;58.90;;;;;;10331845;28;90053;-68
2023/06/08 16:34:59;;;;;;;;;;;22.10;58.90;;;;;;10314153;28;89981;-68
2023/06/08 16:40:01;;;;;;;;;;;22.20;59.00;;;;;;10337880;28;88490;-68
2023/06/08 16:45:03;;;;;;;;;;;22.20;59.10;;;;;;10320176;28;89049;-67
2023/06/08 16:50:08;;;;;;;;;;;22.20;59.40;;;;;;10338354;28;89116;-67
2023/06/08 16:55:10;;;;;;;;;;;22.20;59.40;;;;;;10337991;28;90819;-68
2023/06/08 17:00:12;;;;;;;;;;;22.20;59.40;;;;;;10338169;28;89136;-69
2023/06/08 17:05:14;;;;;;;;;;;22.30;60.20;;;;;;10337128;28;88997;-68
2023/06/08 17:10:16;;;;;;;;;;;22.30;60.10;;;;;;10338882;28;89969;-68
2023/06/08 17:15:18;;;;;;;;;;;22.30;59.90;;;;;;10319983;28;90168;-68
2023/06/08 17:20:21;;;;;;;;;;;22.40;59.40;;;;;;10336727;28;89053;-68
2023/06/08 17:25:23;;;;;;;;;;;22.40;59.20;;;;;;10337384;28;89881;-69
2023/06/08 17:30:25;;;;;;;;;;;22.40;59.30;;;;;;10337784;28;88377;-69
2023/06/08 17:35:27;;;;;;;;;;;22.40;59.40;;;;;;10337835;28;89265;-69
2023/06/08 17:40:29;;;;;;;;;;;22.50;59.60;;;;;;10336735;28;90169;-69
2023/06/08 17:45:30;;;;;;;;;;;22.50;59.80;;;;;;10337027;28;90812;-70
2023/06/08 17:50:32;;;;;;;;;;;22.60;59.80;;;;;;10335805;28;88984;-70
2023/06/08 17:55:34;;;;;;;;;;;22.60;59.70;;;;;;10318172;28;89962;-69
2023/06/08 18:00:36;;;;;;;;;;;22.60;59.60;;;;;;10336828;28;88741;-70
2023/06/08 18:05:38;;;;;;;;;;;22.70;59.60;;;;;;10335562;28;88313;-69
2023/06/08 18:10:40;;;;;;;;;;;22.80;59.60;;;;;;10318301;28;89237;-70
2023/06/08 18:15:42;;;;;;;;;;;22.80;60.50;;;;;;10318207;28;88953;-70
2023/06/08 18:20:44;;;;;;;;;;;22.80;59.40;;;;;;10336195;28;88412;-71
2023/06/08 18:25:46;;;;;;;;;;;22.90;59.20;;;;;;10317862;28;88798;-70
2023/06/08 18:30:48;;;;;;;;;;;22.90;59.10;;;;;;10335050;28;88309;-70
2023/06/08 18:35:50;;;;;;;;;;;22.90;58.90;;;;;;10316117;28;90340;-73
2023/06/08 18:40:52;;;;;;;;;;;22.80;58.80;;;;;;10334634;28;90169;-73
2023/06/08 18:45:54;;;;;;;;;;;22.80;58.80;;;;;;10315357;28;89592;-71
2023/06/08 18:50:57;;;;;;;;;;;22.70;58.90;;;;;;10334361;28;90152;-72
2023/06/08 18:55:58;;;;;;;;;;;22.60;58.90;;;;;;10334311;28;89118;-71
2023/06/08 19:01:00;;;;;;;;;;;22.60;59.00;;;;;;10335355;28;90018;-69
2023/06/08 19:06:02;;;;;;;;;;;22.50;59.20;;;;;;10333878;28;88704;-69
2023/06/08 19:11:03;;;;;;;;;;;22.50;59.20;;;;;;10335020;28;88503;-71
2023/06/08 19:16:06;;;;;;;;;;;22.50;59.30;;;;;;10334245;28;89358;-69
2023/06/08 19:21:08;;;;;;;;;;;22.40;59.40;;;;;;10334455;28;89012;-69
2023/06/08 19:26:10;;;;;;;;;;;22.40;59.40;;;;;;10333119;28;90779;-69
2023/06/08 19:31:11;;;;;;;;;;;22.40;59.50;;;;;;10332979;28;88902;-69
2023/06/08 19:36:15;;;;;;;;;;;22.40;59.50;;;;;;10332335;28;108214;-70
2023/06/08 19:41:17;;;;;;;;;;;22.40;59.50;;;;;;10332461;28;90217;-69
2023/06/08 19:46:20;;;;;;;;;;;22.40;59.60;;;;;;10332066;28;88312;-69
2023/06/08 19:51:22;;;;;;;;;;;22.30;59.50;;;;;;10332025;28;88234;-70
2023/06/08 19:56:24;;;;;;;;;;;22.30;59.50;;;;;;10314126;28;90045;-70
2023/06/08 20:01:25;;;;;;;;;;;22.30;59.60;;;;;;10315251;28;88689;-69
2023/06/08 20:06:27;;;;;;;;;;;22.30;59.50;;;;;;10331602;28;88762;-70
2023/06/08 20:11:29;;;;;;;;;;;22.30;59.60;;;;;;10334060;28;89975;-70
2023/06/08 20:16:31;;;;;;;;;;;22.30;59.50;;;;;;10338202;28;89744;-70
2023/06/08 20:21:33;;;;;;;;;;;22.30;59.40;;;;;;10338372;28;89123;-70
2023/06/08 20:26:36;;;;;;;;;;;22.30;59.40;;;;;;10338606;28;89113;-70
2023/06/08 20:31:38;;;;;;;;;;;22.30;59.40;;;;;;10338503;28;90036;-69
2023/06/08 20:36:40;;;;;;;;;;;22.30;59.40;;;;;;10339473;28;89030;-69
2023/06/08 20:41:42;;;;;;;;;;;22.30;59.30;;;;;;10338367;28;88185;-70
2023/06/08 20:46:44;;;;;;;;;;;22.30;59.30;;;;;;10320427;28;90052;-70
2023/06/08 20:51:50;;;;;;;;;;;22.30;59.30;;;;;;10338790;28;89348;-70
2023/06/08 20:56:52;;;;;;;;;;;22.30;59.20;;;;;;10320001;28;90334;-70
2023/06/08 21:01:54;;;;;;;;;;;22.30;59.20;;;;;;10338053;28;89907;-68
2023/06/08 21:06:56;;;;;;;;;;;22.30;59.10;;;;;;10337799;28;90768;-68
2023/06/08 21:11:58;;;;;;;;;;;22.30;59.10;;;;;;10337505;28;89078;-68
2023/06/08 21:16:59;;;;;;;;;;;22.20;58.90;;;;;;10337750;28;90184;-68
2023/06/08 21:22:01;;;;;;;;;;;22.20;58.90;;;;;;10318942;28;89257;-68
2023/06/08 21:27:03;;;;;;;;;;;22.20;58.80;;;;;;10336687;28;89329;-69
2023/06/08 21:32:05;;;;;;;;;;;22.20;58.70;;;;;;10337894;28;89279;-68
2023/06/08 21:37:06;;;;;;;;;;;22.20;58.50;;;;;;10337678;28;90299;-68
2023/06/08 21:42:09;;;;;;;;;;;22.10;58.40;;;;;;10338445;28;89620;-69
2023/06/08 21:47:11;;;;;;;;;;;22.10;58.40;;;;;;10318717;28;90115;-69
2023/06/08 21:52:13;;;;;;;;;;;22.10;58.30;;;;;;10336500;28;90424;-69
2023/06/08 21:57:15;;;;;;;;;;;22.10;58.30;;;;;;10335345;28;90505;-70
2023/06/08 22:02:16;;;;;;;;;;;22.10;58.30;;;;;;10335627;28;89723;-70
2023/06/08 22:07:18;;;;;;;;;;;22.00;58.20;;;;;;10318514;28;88200;-70
2023/06/08 22:12:21;;;;;;;;;;;22.00;58.20;;;;;;10335538;28;88886;-69
2023/06/08 22:17:29;;;;;;;;;;;22.00;58.20;;;;;;10336472;28;90420;-69
2023/06/08 22:22:31;;;;;;;;;;;22.00;58.20;;;;;;10317422;28;89087;-70
2023/06/08 22:27:33;;;;;;;;;;;22.00;59.10;;;;;;10335094;28;89221;-69
2023/06/08 22:32:36;;;;;;;;;;;22.00;58.10;;;;;;10336136;28;89357;-70
2023/06/08 22:37:37;;;;;;;;;;;22.00;58.00;;;;;;10335031;28;90000;-69
2023/06/08 22:42:39;;;;;;;;;;;22.00;58.00;;;;;;10316921;28;89086;-69
2023/06/08 22:47:41;;;;;;;;;;;22.00;57.90;;;;;;10333190;28;90980;-69
2023/06/08 22:52:45;;;;;;;;;;;22.00;57.90;;;;;;10334485;28;89996;-70
2023/06/08 22:57:47;;;;;;;;;;;22.00;57.80;;;;;;10334024;28;89009;-69
2023/06/08 23:02:49;;;;;;;;;;;22.00;57.70;;;;;;10317373;28;88666;-69
2023/06/08 23:07:51;;;;;;;;;;;22.00;57.60;;;;;;10316672;28;89149;-70
2023/06/08 23:12:53;;;;;;;;;;;22.00;57.50;;;;;;10334802;28;88965;-69
2023/06/08 23:17:54;;;;;;;;;;;22.00;57.40;;;;;;10333893;28;90072;-69
2023/06/08 23:22:56;;;;;;;;;;;22.00;57.40;;;;;;10334570;28;89239;-70
2023/06/08 23:27:58;;;;;;;;;;;22.00;57.40;;;;;;10333102;28;89130;-70
2023/06/08 23:33:00;;;;;;;;;;;22.00;57.20;;;;;;10334287;28;89231;-69
2023/06/08 23:38:02;;;;;;;;;;;21.90;57.20;;;;;;10314666;28;90250;-69
2023/06/08 23:43:09;;;;;;;;;;;21.90;57.10;;;;;;10333616;28;90085;-69
2023/06/08 23:48:10;;;;;;;;;;;21.90;57.10;;;;;;10331916;28;90144;-69
2023/06/08 23:53:12;;;;;;;;;;;21.90;57.00;;;;;;10333911;28;90003;-69
2023/06/08 23:58:18;;;;;;;;;;;21.90;57.10;;;;;;10331927;28;89061;-69
